Time;durP1;ratioP1;P1;durP2;ratioP2;P2;SDS_P1;SDS_P2;PMS_P1;PMS_P2;Temp;Humidity;BMP_temperature;BMP_pressure;BME280_temperature;BME280_humidity;BME280_pressure;Samples;Min_cycle;Max_cycle;Signal;HPM_P1;HPM_P2
2023/01/05 00:01:43;;;;;;;10.02;6.43;;;;;;;15.59;56.02;100641.66;5114608;28;20071;-57
2023/01/05 00:04:11;;;;;;;10.98;6.63;;;;;;;15.58;56.09;100629.19;5096380;28;20051;-57
2023/01/05 00:06:43;;;;;;;9.65;6.22;;;;;;;15.55;56.03;100621.34;5114526;28;20047;-59
2023/01/05 00:09:16;;;;;;;8.45;6.07;;;;;;;15.54;56.23;100614.22;5113387;28;20046;-58
2023/01/05 00:23:00;;;;;;;10.23;6.55;;;;;;;15.39;56.32;100563.34;5114132;28;20071;-58
2023/01/05 00:25:30;;;;;;;9.93;6.22;;;;;;;15.37;56.27;100568.00;5114191;28;20043;-56
2023/01/05 00:28:01;;;;;;;9.75;6.05;;;;;;;15.36;56.21;100571.66;5125375;27;20046;-57
2023/01/05 00:30:31;;;;;;;8.77;6.68;;;;;;;15.33;56.38;100571.00;5134628;27;20043;-55
2023/01/05 00:33:02;;;;;;;;;;;;;;;15.29;56.40;100581.13;5135168;27;20051;-56
2023/01/05 00:35:30;;;;;;;8.75;6.00;;;;;;;15.27;56.47;100582.22;5134525;27;20006;-56
2023/01/05 00:37:58;;;;;;;8.38;5.57;;;;;;;15.24;56.45;100580.59;5134517;27;20039;-58
2023/01/05 00:40:26;;;;;;;8.60;5.78;;;;;;;15.22;56.39;100573.66;5134384;27;20054;-58
2023/01/05 00:42:57;;;;;;;8.93;6.22;;;;;;;15.20;56.53;100571.06;5116274;27;20373;-57
2023/01/05 00:45:26;;;;;;;8.65;5.60;;;;;;;15.19;56.58;100577.44;5134386;27;20446;-56
2023/01/05 00:47:57;;;;;;;8.40;5.90;;;;;;;15.16;56.62;100570.47;5134581;27;20041;-58
2023/01/05 00:50:29;;;;;;;8.73;5.88;;;;;;;15.14;56.57;100577.75;5115759;27;20442;-56
2023/01/05 00:52:58;;;;;;;8.32;5.90;;;;;;;15.15;56.64;100611.72;5134099;27;20039;-57
2023/01/05 00:55:28;;;;;;;9.25;5.88;;;;;;;15.14;56.69;100593.00;5134147;27;20047;-58
2023/01/05 00:57:56;;;;;;;7.10;5.22;;;;;;;15.12;56.63;100585.06;5115636;27;20043;-58
2023/01/05 01:00:28;;;;;;;7.43;5.03;;;;;;;15.11;56.82;100571.75;5134068;27;20039;-58
2023/01/05 01:03:05;;;;;;;7.55;5.25;;;;;;;15.10;56.78;100578.09;5116670;27;20116;-57
2023/01/05 01:05:35;;;;;;;8.40;5.57;;;;;;;15.08;56.75;100574.69;5133930;27;20043;-59
2023/01/05 01:08:08;;;;;;;9.27;5.90;;;;;;;15.07;56.95;100570.28;5115715;27;20047;-57
2023/01/05 01:10:39;;;;;;;7.07;5.20;;;;;;;15.07;56.89;100567.59;5133723;27;20055;-58
2023/01/05 01:13:07;;;;;;;8.07;5.10;;;;;;;15.05;56.90;100567.69;5115372;27;20051;-57
2023/01/05 01:15:39;;;;;;;7.50;5.40;;;;;;;15.03;56.98;100577.69;5133840;27;20078;-58
2023/01/05 01:18:07;;;;;;;8.43;5.57;;;;;;;15.02;56.99;100594.78;5133637;27;20054;-58
2023/01/05 01:20:38;;;;;;;7.78;5.07;;;;;;;15.01;57.04;100582.31;5133635;27;20076;-58
2023/01/05 01:23:07;;;;;;;7.88;5.38;;;;;;;15.00;57.07;100585.13;5133551;27;20039;-57
2023/01/05 01:25:38;;;;;;;7.10;5.43;;;;;;;14.99;57.13;100568.16;5133513;27;20053;-56
2023/01/05 01:28:06;;;;;;;7.32;5.10;;;;;;;14.97;57.34;100561.19;5133362;27;20095;-55
2023/01/05 01:30:37;;;;;;;8.02;5.55;;;;;;;14.97;57.22;100555.81;5133412;27;20091;-57
2023/01/05 01:33:08;;;;;;;8.43;5.13;;;;;;;14.95;57.25;100565.78;5114544;27;20074;-58
2023/01/05 01:35:37;;;;;;;7.78;5.07;;;;;;;14.94;57.19;100550.66;5133370;27;20126;-57
2023/01/05 01:38:05;;;;;;;7.35;4.78;;;;;;;14.93;57.33;100552.47;5133195;27;20138;-57
2023/01/05 01:40:39;;;;;;;7.10;5.38;;;;;;;14.91;57.21;100567.00;5133231;27;20046;-58
2023/01/05 01:43:14;;;;;;;;;;;;;;;14.88;57.25;100560.03;5114840;27;20054;-58
2023/01/05 01:45:43;;;;;;;7.13;4.82;;;;;;;14.87;57.34;100544.88;5114133;27;19920;-57
2023/01/05 01:48:18;;;;;;;7.13;5.10;;;;;;;14.85;57.39;100538.75;5133195;27;20050;-56
2023/01/05 01:50:50;;;;;;;7.93;5.05;;;;;;;14.82;57.48;100518.34;5133034;27;20043;-57
2023/01/05 01:53:23;;;;;;;7.32;5.10;;;;;;;14.81;57.41;100524.69;5133018;27;20043;-57
2023/01/05 01:55:53;;;;;;;8.00;5.40;;;;;;;14.78;57.36;100524.94;5113888;27;20051;-57
2023/01/05 01:58:25;;;;;;;7.43;4.80;;;;;;;14.78;57.46;100524.94;5133086;27;20042;-57
2023/01/05 02:00:56;;;;;;;6.90;4.78;;;;;;;14.75;57.42;100511.72;5132941;27;20114;-58
2023/01/05 02:03:27;;;;;;;6.97;4.88;;;;;;;14.74;57.38;100510.00;5132905;27;20661;-58
2023/01/05 02:05:55;;;;;;;8.13;4.80;;;;;;;14.73;57.44;100508.28;5132761;27;20050;-57
2023/01/05 02:08:30;;;;;;;6.93;4.88;;;;;;;14.69;57.52;100490.69;5114415;27;20047;-57
2023/01/05 02:11:13;;;;;;;7.20;5.07;;;;;;;14.70;57.49;100503.16;5132616;27;20116;-58
2023/01/05 02:13:50;;;;;;;;;;;;;;;14.69;57.59;100500.59;5114656;27;20047;-57
2023/01/05 02:16:28;;;;;;;6.82;4.82;;;;;;;14.67;57.67;100481.91;5132573;27;19942;-56
2023/01/05 02:19:23;;;;;;;6.32;4.47;;;;;;;14.66;57.49;100498.97;5132723;27;20123;-57
2023/01/05 02:22:01;;;;;;;6.72;4.75;;;;;;;14.65;57.70;100516.03;5132649;27;20484;-57
2023/01/05 02:24:50;;;;;;;7.30;4.68;;;;;;;14.61;57.73;100498.44;5132574;27;20104;-57
2023/01/05 02:27:36;;;;;;;7.35;4.78;;;;;;;14.62;57.80;100496.63;5132549;28;20047;-56
2023/01/05 02:30:42;;;;;;;7.47;4.55;;;;;;;14.61;57.73;100487.72;5132830;28;20042;-56
2023/01/05 02:33:25;;;;;;;7.45;5.00;;;;;;;14.59;57.76;100481.59;5134644;27;20100;-57
2023/01/05 02:35:58;;;;;;;7.22;4.53;;;;;;;14.58;57.92;100487.94;5136987;27;20066;-58
2023/01/05 02:38:31;;;;;;;;;;;;;;;14.56;57.81;100489.88;5137305;27;20039;-57
2023/01/05 02:41:07;;;;;;;6.30;4.35;;;;;;;14.55;57.82;100486.31;5136918;27;19927;-56
2023/01/05 02:43:35;;;;;;;6.78;4.15;;;;;;;14.54;57.96;100481.06;5136736;27;20492;-58
2023/01/05 02:46:05;;;;;;;7.53;4.60;;;;;;;14.53;57.85;100474.00;5136612;27;20047;-56
2023/01/05 02:48:34;;;;;;;6.60;4.50;;;;;;;14.52;57.98;100461.53;5136790;27;20043;-60
2023/01/05 02:51:07;;;;;;;6.93;4.55;;;;;;;14.52;58.05;100450.81;5136584;27;20122;-56
2023/01/05 02:53:39;;;;;;;7.50;4.70;;;;;;;14.50;58.03;100453.59;5136554;27;20639;-58
2023/01/05 02:56:13;;;;;;;6.67;4.17;;;;;;;14.49;57.99;100445.69;5136440;27;20070;-55
2023/01/05 02:58:44;;;;;;;7.28;4.28;;;;;;;14.48;57.98;100439.44;5136480;27;20043;-55
2023/01/05 03:01:18;;;;;;;7.47;4.93;;;;;;;14.47;58.10;100434.16;5136547;27;20506;-57
2023/01/05 03:03:50;;;;;;;7.10;4.70;;;;;;;14.46;58.24;100445.88;5136565;27;20043;-58
2023/01/05 03:06:23;;;;;;;8.07;4.57;;;;;;;14.45;58.20;100444.16;5136213;27;20046;-57
2023/01/05 03:08:55;;;;;;;6.03;4.18;;;;;;;14.44;58.13;100453.16;5136199;27;20063;-58
2023/01/05 03:14:23;;;;;;;6.55;4.20;;;;;;;14.42;58.15;100442.53;5136200;27;20123;-55
2023/01/05 03:16:56;;;;;;;6.53;4.40;;;;;;;14.41;58.30;100453.38;5117708;27;20484;-55
2023/01/05 03:19:39;;;;;;;7.13;4.28;;;;;;;14.40;58.36;100454.38;5136119;27;20043;-57
2023/01/05 03:36:27;;;;;;;5.97;3.88;;;;;;;14.31;58.34;100397.72;5135692;27;20055;-57
2023/01/05 03:38:58;;;;;;;6.25;4.13;;;;;;;14.33;58.38;100376.13;5135879;27;20049;-58
2023/01/05 03:41:27;;;;;;;6.43;4.05;;;;;;;14.32;58.43;100356.50;5135657;27;20186;-57
2023/01/05 03:43:56;;;;;;;5.63;4.03;;;;;;;14.31;58.51;100357.47;5117639;27;20389;-57
2023/01/05 03:46:24;;;;;;;5.78;4.07;;;;;;;14.30;58.55;100355.75;5135377;27;20503;-56
2023/01/05 03:48:54;;;;;;;6.57;4.07;;;;;;;14.30;58.51;100355.75;5135463;27;20061;-59
2023/01/05 03:51:25;;;;;;;6.50;3.97;;;;;;;14.29;58.59;100359.41;5135448;27;20043;-56
2023/01/05 03:53:53;;;;;;;5.50;3.72;;;;;;;14.27;58.69;100358.63;5135360;27;20047;-57
2023/01/05 03:56:21;;;;;;;6.18;4.15;;;;;;;14.27;58.70;100365.84;5135295;27;20385;-56
2023/01/05 03:58:50;;;;;;;6.78;3.88;;;;;;;14.25;58.68;100355.22;5135198;27;20043;-58
2023/01/05 04:01:19;;;;;;;5.80;4.10;;;;;;;14.24;58.69;100349.97;5135375;27;20043;-57
2023/01/05 04:03:49;;;;;;;5.38;3.85;;;;;;;14.24;58.75;100356.19;5135096;27;20563;-57
2023/01/05 04:06:19;;;;;;;4.93;3.35;;;;;;;14.22;58.68;100339.38;5135017;27;20050;-57
2023/01/05 04:08:47;;;;;;;5.65;3.92;;;;;;;14.21;58.85;100348.38;5135091;27;20445;-55
2023/01/05 04:11:17;;;;;;;5.97;4.07;;;;;;;14.21;58.76;100345.69;5134765;27;20059;-58
2023/01/05 04:13:49;;;;;;;5.90;4.00;;;;;;;14.20;58.83;100344.00;5135241;27;20071;-57
2023/01/05 04:16:18;;;;;;;7.13;4.03;;;;;;;14.20;58.81;100361.91;5134998;27;20062;-56
2023/01/05 04:18:48;;;;;;;7.00;4.30;;;;;;;14.19;58.82;100353.00;5134995;27;20074;-54
2023/01/05 04:21:17;;;;;;;5.55;3.80;;;;;;;14.18;58.72;100351.28;5134940;27;20067;-57
2023/01/05 04:23:46;;;;;;;5.75;4.10;;;;;;;14.18;58.83;100351.28;5134910;27;20408;-58
2023/01/05 04:26:14;;;;;;;6.10;4.05;;;;;;;14.17;58.79;100337.97;5134713;27;20472;-56
2023/01/05 04:28:42;;;;;;;6.22;4.30;;;;;;;14.15;59.01;100339.91;5135000;27;20050;-57
2023/01/05 04:31:10;;;;;;;5.85;3.88;;;;;;;14.15;58.94;100331.88;5134633;27;20039;-57
2023/01/05 04:33:39;;;;;;;5.88;4.00;;;;;;;14.16;58.86;100325.53;5134647;27;20039;-56
2023/01/05 04:36:11;;;;;;;6.53;3.97;;;;;;;14.15;58.88;100324.69;5116554;27;20088;-55
2023/01/05 04:38:39;;;;;;;5.50;3.60;;;;;;;14.15;58.78;100319.31;5134415;27;20075;-55
2023/01/05 04:41:10;;;;;;;5.85;4.15;;;;;;;14.18;58.88;100329.81;5134431;27;20057;-56
2023/01/05 04:43:38;;;;;;;6.07;3.97;;;;;;;14.22;58.96;100317.91;5116537;27;20092;-57
2023/01/05 04:46:07;;;;;;;6.18;3.70;;;;;;;14.32;59.07;100326.13;5134402;27;20049;-56
2023/01/05 04:48:35;;;;;;;5.93;3.95;;;;;;;14.41;59.11;100319.22;5134415;27;20047;-56
2023/01/05 04:51:06;;;;;;;5.63;3.70;;;;;;;14.53;59.10;100318.31;5134371;27;20100;-57
2023/01/05 04:53:34;;;;;;;5.60;3.90;;;;;;;14.64;58.94;100325.56;5134184;27;20043;-55
2023/01/05 04:56:02;;;;;;;6.07;4.25;;;;;;;14.73;58.99;100323.03;5115559;27;20039;-58
2023/01/05 04:58:32;;;;;;;5.80;3.95;;;;;;;14.85;58.79;100330.13;5116085;27;20099;-57
2023/01/05 05:01:00;;;;;;;5.72;3.40;;;;;;;14.96;58.77;100326.66;5134069;27;20043;-55
2023/01/05 05:03:29;;;;;;;5.60;4.00;;;;;;;15.06;58.73;100316.03;5133983;27;20047;-55
2023/01/05 05:06:01;;;;;;;5.40;3.45;;;;;;;15.17;58.29;100305.31;5133439;27;20079;-57
2023/01/05 05:08:29;;;;;;;7.40;3.83;;;;;;;15.28;58.58;100305.31;5133941;27;20046;-56
2023/01/05 05:10:58;;;;;;;5.63;3.83;;;;;;;15.37;58.31;100304.59;5133759;27;20050;-57
2023/01/05 05:13:30;;;;;;;5.85;3.55;;;;;;;15.45;58.27;100302.16;5133749;27;20053;-56
2023/01/05 05:15:59;;;;;;;5.70;3.40;;;;;;;15.56;58.11;100311.19;5133796;27;20488;-56
2023/01/05 05:18:28;;;;;;;6.07;3.60;;;;;;;15.65;58.11;100318.56;5133693;27;20047;-56
2023/01/05 05:20:56;;;;;;;5.22;3.50;;;;;;;15.74;58.03;100317.81;5133638;27;20484;-57
2023/01/05 05:23:24;;;;;;;6.57;3.40;;;;;;;15.83;57.94;100313.53;5133554;27;20047;-56
2023/01/05 05:25:52;;;;;;;5.00;3.60;;;;;;;15.95;57.88;100323.28;5114215;27;20048;-55
2023/01/05 05:28:26;;;;;;;5.32;3.50;;;;;;;15.99;57.87;100311.28;5112760;28;20092;-56
2023/01/05 05:30:58;;;;;;;5.20;3.30;;;;;;;16.06;57.70;100308.97;5112700;28;20097;-56
2023/01/05 05:33:28;;;;;;;6.63;3.58;;;;;;;16.07;57.71;100302.59;5112783;28;20047;-56
2023/01/05 05:35:56;;;;;;;5.15;3.40;;;;;;;16.09;57.75;100316.78;5114592;27;20429;-57
2023/01/05 05:38:24;;;;;;;5.18;3.40;;;;;;;16.09;57.68;100308.69;5133336;27;20081;-57
2023/01/05 05:40:52;;;;;;;5.50;3.70;;;;;;;16.07;57.73;100291.84;5114783;27;20138;-57
2023/01/05 05:43:20;;;;;;;5.15;3.20;;;;;;;16.06;57.73;100276.69;5133143;27;20074;-56
2023/01/05 05:45:48;;;;;;;4.68;3.20;;;;;;;16.03;57.76;100284.03;5119562;27;20063;-56
2023/01/05 05:48:18;;;;;;;5.53;3.42;;;;;;;16.00;57.74;100286.94;5112623;28;20035;-55
2023/01/05 05:50:48;;;;;;;6.03;3.42;;;;;;;15.99;57.94;100292.47;5112576;28;20044;-57
2023/01/05 05:53:16;;;;;;;5.30;3.70;;;;;;;15.96;57.83;100303.47;5112585;28;20130;-57
2023/01/05 05:55:48;;;;;;;6.00;3.47;;;;;;;15.93;57.88;100312.66;5112482;28;20515;-56
2023/01/05 05:58:16;;;;;;;5.07;3.50;;;;;;;15.90;57.90;100307.50;5112452;28;20043;-57
2023/01/05 06:00:44;;;;;;;5.57;3.58;;;;;;;15.86;58.02;100303.38;5093903;28;20135;-57
2023/01/05 06:03:13;;;;;;;5.60;3.70;;;;;;;15.82;57.90;100293.81;5112391;28;20276;-56
2023/01/05 06:05:41;;;;;;;5.43;3.20;;;;;;;15.81;57.92;100293.97;5093881;28;20058;-56
2023/01/05 06:08:14;;;;;;;6.50;3.78;;;;;;;15.75;58.00;100289.94;5111296;28;20500;-56
2023/01/05 06:10:42;;;;;;;6.13;3.73;;;;;;;15.73;58.13;100287.38;5112077;28;20104;-56
2023/01/05 06:13:13;;;;;;;6.35;4.00;;;;;;;15.67;57.89;100278.97;5112278;28;20075;-58
2023/01/05 06:15:43;;;;;;;5.25;3.67;;;;;;;15.64;58.00;100268.47;5112186;28;20124;-56
2023/01/05 06:18:14;;;;;;;6.03;3.87;;;;;;;15.58;57.89;100271.59;5112159;28;20058;-57
2023/01/05 06:20:42;;;;;;;5.80;3.88;;;;;;;15.55;58.00;100264.66;5093643;28;20047;-56
2023/01/05 06:23:12;;;;;;;5.50;3.90;;;;;;;15.53;58.08;100265.72;5093704;28;20108;-57
2023/01/05 06:25:40;;;;;;;6.40;3.67;;;;;;;15.50;58.14;100268.66;5112030;28;20044;-55
2023/01/05 06:28:09;;;;;;;5.78;3.58;;;;;;;15.46;57.94;100273.44;5111946;28;20046;-55
2023/01/05 06:30:37;;;;;;;5.90;4.10;;;;;;;15.41;58.05;100275.63;5112117;28;20066;-55
2023/01/05 06:33:05;;;;;;;5.30;3.70;;;;;;;15.38;58.06;100274.06;5112122;28;20404;-55
2023/01/05 06:35:33;;;;;;;5.25;3.70;;;;;;;15.35;58.11;100262.69;5111930;28;20039;-56
2023/01/05 06:38:02;;;;;;;5.70;3.63;;;;;;;15.33;58.12;100254.75;5111863;28;20044;-56
2023/01/05 06:40:34;;;;;;;6.20;4.10;;;;;;;15.31;58.16;100245.94;5111974;28;20461;-55
2023/01/05 06:43:02;;;;;;;6.17;3.83;;;;;;;15.27;58.21;100243.66;5111826;28;20130;-58
2023/01/05 06:45:31;;;;;;;7.22;4.20;;;;;;;15.24;58.23;100241.19;5111640;28;20493;-56
2023/01/05 06:47:59;;;;;;;6.60;4.22;;;;;;;15.21;58.16;100233.38;5111799;28;20044;-56
2023/01/05 06:50:29;;;;;;;6.22;4.10;;;;;;;15.17;58.26;100232.78;5121991;28;20381;-56
2023/01/05 06:52:57;;;;;;;6.15;3.72;;;;;;;15.15;58.17;100229.34;5132318;28;20054;-58
2023/01/05 06:55:25;;;;;;;5.38;3.78;;;;;;;15.13;58.31;100223.22;5126205;28;20370;-58
2023/01/05 06:57:55;;;;;;;6.32;4.22;;;;;;;15.10;58.30;100220.78;5100263;28;20039;-60
2023/01/05 07:00:28;;;;;;;5.68;3.92;;;;;;;15.08;58.36;100228.13;5100548;28;20048;-55
2023/01/05 07:02:57;;;;;;;5.82;4.03;;;;;;;15.06;58.30;100219.34;5097972;28;20040;-58
2023/01/05 07:05:25;;;;;;;6.57;4.40;;;;;;;15.02;58.39;100224.09;5120208;28;20044;-57
2023/01/05 07:07:54;;;;;;;6.20;3.92;;;;;;;15.00;58.46;100204.56;5120483;28;20488;-55
2023/01/05 07:10:22;;;;;;;6.20;4.25;;;;;;;14.98;58.45;100219.94;5104337;28;20055;-55
2023/01/05 07:12:50;;;;;;;6.53;3.88;;;;;;;14.96;58.49;100218.34;5121051;28;20062;-56
2023/01/05 07:15:20;;;;;;;5.95;3.85;;;;;;;14.93;58.52;100222.13;5120577;28;20036;-58
2023/01/05 07:17:48;;;;;;;5.97;3.80;;;;;;;14.91;58.45;100220.53;5111643;28;20051;-54
2023/01/05 07:20:17;;;;;;;6.60;3.90;;;;;;;14.89;58.46;100226.03;5115060;28;20047;-55
2023/01/05 07:22:45;;;;;;;6.28;4.03;;;;;;;14.84;58.44;100215.63;5097252;28;20054;-58
2023/01/05 07:25:13;;;;;;;6.40;4.38;;;;;;;14.83;58.52;100224.66;5117977;27;20084;-56
2023/01/05 07:27:41;;;;;;;5.70;3.83;;;;;;;14.82;58.58;100206.00;5107521;27;20050;-58
2023/01/05 07:30:11;;;;;;;6.57;3.92;;;;;;;14.78;58.59;100204.53;5123580;27;20050;-54
2023/01/05 07:32:40;;;;;;;5.82;3.97;;;;;;;14.76;58.60;100188.53;5132819;27;20043;-57
2023/01/05 07:35:09;;;;;;;6.88;4.00;;;;;;;14.75;58.57;100175.22;5117251;27;20074;-57
2023/01/05 07:37:37;;;;;;;5.32;3.72;;;;;;;14.72;58.69;100165.59;5135585;27;20092;-57
2023/01/05 07:40:07;;;;;;;6.57;4.38;;;;;;;14.70;58.65;100164.88;5132275;27;20035;-56
2023/01/05 07:42:38;;;;;;;5.47;3.72;;;;;;;14.68;58.65;100172.19;5102745;28;20096;-56
2023/01/05 07:45:07;;;;;;;5.82;4.10;;;;;;;14.69;58.71;100186.47;5114921;28;20044;-57
2023/01/05 07:47:40;;;;;;;6.05;3.70;;;;;;;14.70;58.73;100193.56;5114595;28;20075;-55
2023/01/05 07:50:09;;;;;;;5.50;3.40;;;;;;;14.69;58.71;100206.13;5096603;28;20044;-55
2023/01/05 07:52:37;;;;;;;6.15;3.90;;;;;;;14.76;58.90;100187.69;5117455;27;20047;-56
2023/01/05 07:55:07;;;;;;;5.22;3.63;;;;;;;14.84;58.82;100190.63;5114795;28;20118;-57
2023/01/05 07:57:36;;;;;;;6.13;3.75;;;;;;;14.95;58.80;100187.09;5114577;28;20067;-58
2023/01/05 08:00:08;;;;;;;5.75;4.05;;;;;;;15.06;58.79;100192.47;5123650;27;20097;-58
2023/01/05 08:02:36;;;;;;;5.00;3.80;;;;;;;15.11;58.80;100183.06;5108307;27;20548;-55
2023/01/05 08:05:06;;;;;;;6.65;3.80;;;;;;;15.20;58.71;100191.38;5121952;27;20123;-57
2023/01/05 08:07:35;;;;;;;6.22;4.47;;;;;;;15.25;58.53;100181.97;5118262;27;20070;-57
2023/01/05 08:15:35;;;;;;;6.25;3.92;;;;;;;15.31;58.63;100176.06;5096045;28;20511;-56
2023/01/05 08:18:03;;;;;;;5.88;3.83;;;;;;;15.31;58.52;100178.75;5114058;28;20075;-58
2023/01/05 08:20:33;;;;;;;5.55;3.95;;;;;;;15.33;58.51;100184.00;5095596;28;20051;-56
2023/01/05 08:23:01;;;;;;;5.50;3.83;;;;;;;15.30;58.59;100182.44;5114080;28;20192;-58
2023/01/05 08:25:29;;;;;;;5.95;4.20;;;;;;;15.30;58.50;100174.38;5114398;28;20082;-56
2023/01/05 08:27:58;;;;;;;6.07;4.10;;;;;;;15.28;58.51;100165.59;5113948;28;20420;-57
2023/01/05 08:30:27;;;;;;;6.38;4.20;;;;;;;15.25;58.59;100179.28;5113204;28;20047;-56
2023/01/05 08:32:55;;;;;;;6.28;4.25;;;;;;;15.25;58.62;100187.34;5114046;28;20047;-58
2023/01/05 08:35:23;;;;;;;5.75;4.18;;;;;;;15.22;58.57;100182.19;5096106;28;20427;-56
2023/01/05 08:37:55;;;;;;;6.47;4.20;;;;;;;15.20;58.66;100161.81;5114249;28;20049;-56
2023/01/05 08:40:24;;;;;;;7.15;4.75;;;;;;;15.18;58.55;100170.00;5113775;28;20046;-58
2023/01/05 08:42:52;;;;;;;6.25;4.15;;;;;;;15.14;58.69;100173.88;5113915;28;20040;-57
2023/01/05 08:45:20;;;;;;;6.28;4.07;;;;;;;15.12;58.63;100176.72;5113793;28;20054;-58
2023/01/05 08:47:48;;;;;;;6.07;4.10;;;;;;;15.12;58.78;100167.78;5113739;28;20040;-57
2023/01/05 08:50:17;;;;;;;5.60;3.83;;;;;;;15.10;58.74;100172.44;5113512;28;20047;-58
2023/01/05 08:52:46;;;;;;;6.32;4.40;;;;;;;15.07;58.64;100183.44;5113600;28;20054;-57
2023/01/05 08:55:15;;;;;;;6.30;4.03;;;;;;;15.05;58.68;100177.31;5113976;28;20066;-58
2023/01/05 08:57:43;;;;;;;6.97;4.70;;;;;;;15.03;58.73;100192.69;5095100;28;20048;-55
2023/01/05 09:00:13;;;;;;;6.70;4.47;;;;;;;15.01;58.59;100178.53;5113378;28;20043;-57
2023/01/05 09:02:41;;;;;;;6.78;4.03;;;;;;;14.99;58.64;100191.25;5113171;28;20047;-56
2023/01/05 09:05:10;;;;;;;6.82;4.38;;;;;;;14.96;58.52;100187.00;5113393;28;20497;-58
2023/01/05 09:07:38;;;;;;;6.28;4.20;;;;;;;14.95;58.68;100195.13;5113408;28;20472;-56
2023/01/05 09:10:09;;;;;;;5.93;4.43;;;;;;;14.93;58.67;100192.56;5078544;28;20055;-57
2023/01/05 09:12:39;;;;;;;5.72;4.22;;;;;;;14.91;58.74;100201.75;5113289;28;20039;-56
2023/01/05 09:15:08;;;;;;;5.72;4.13;;;;;;;14.88;58.82;100200.16;5113151;28;20051;-57
2023/01/05 09:17:37;;;;;;;6.55;4.65;;;;;;;14.87;58.82;100203.81;5095062;28;20089;-58
2023/01/05 09:20:07;;;;;;;7.32;4.97;;;;;;;14.82;58.74;100200.63;5112977;28;20131;-57
2023/01/05 09:22:35;;;;;;;6.57;4.82;;;;;;;14.83;58.82;100203.19;5113156;28;20089;-57
2023/01/05 09:25:05;;;;;;;6.85;4.57;;;;;;;14.79;58.64;100191.00;5112905;28;20124;-56
2023/01/05 09:27:35;;;;;;;6.85;4.60;;;;;;;14.76;58.80;100185.84;5112721;28;20047;-56
2023/01/05 09:30:05;;;;;;;7.57;4.80;;;;;;;14.75;58.92;100192.19;5112700;28;20040;-56
2023/01/05 09:32:33;;;;;;;7.57;4.80;;;;;;;14.73;58.85;100175.34;5112895;28;20055;-57
2023/01/05 09:35:03;;;;;;;7.35;4.90;;;;;;;14.70;58.90;100164.88;5112633;28;20108;-57
2023/01/05 09:37:31;;;;;;;7.05;4.60;;;;;;;14.69;59.03;100144.38;5112454;28;20054;-56
2023/01/05 09:40:02;;;;;;;7.32;5.05;;;;;;;14.67;58.93;100138.28;5112912;28;20103;-57
2023/01/05 09:42:32;;;;;;;6.60;4.43;;;;;;;14.66;58.89;100128.47;5094160;28;20463;-57
2023/01/05 09:45:06;;;;;;;6.55;4.63;;;;;;;14.67;59.05;100132.91;5112624;28;20044;-57
2023/01/05 09:47:37;;;;;;;6.13;4.53;;;;;;;14.65;59.01;100129.47;5112615;28;20116;-56
2023/01/05 09:50:08;;;;;;;7.70;4.68;;;;;;;14.63;59.04;100126.06;5112423;28;20043;-56
2023/01/05 09:52:37;;;;;;;8.55;5.35;;;;;;;14.63;59.09;100120.69;5112618;28;20039;-56
2023/01/05 09:55:14;;;;;;;7.32;5.05;;;;;;;14.61;59.07;100111.91;5112572;28;20389;-55
2023/01/05 09:57:44;;;;;;;8.13;5.03;;;;;;;14.60;59.10;100116.41;5112484;28;20443;-57
2023/01/05 10:00:17;;;;;;;7.53;4.85;;;;;;;14.59;59.10;100117.41;5112329;28;20109;-57
2023/01/05 10:02:51;;;;;;;7.07;4.85;;;;;;;14.59;59.16;100119.22;5094078;28;20078;-56
2023/01/05 10:05:21;;;;;;;7.30;5.03;;;;;;;14.58;59.25;100122.91;5112339;28;20050;-57
2023/01/05 10:07:54;;;;;;;6.45;4.40;;;;;;;14.57;59.29;100099.69;5112225;28;20121;-57
2023/01/05 10:10:32;;;;;;;6.88;4.82;;;;;;;14.56;59.13;100092.59;5093974;28;20515;-57
2023/01/05 10:13:02;;;;;;;7.47;4.75;;;;;;;14.55;59.23;100096.28;5112670;28;20052;-58
2023/01/05 10:15:38;;;;;;;6.18;4.43;;;;;;;14.54;59.29;100094.56;5093917;28;20048;-57
2023/01/05 10:18:13;;;;;;;6.80;4.57;;;;;;;14.54;59.43;100086.50;5112118;28;20553;-58
2023/01/05 10:20:56;;;;;;;7.05;4.70;;;;;;;14.53;59.43;100087.50;5112182;28;20047;-56
2023/01/05 10:23:31;;;;;;;;;;;;;;;14.52;59.39;100093.84;5112579;28;20481;-56
2023/01/05 10:26:05;;;;;;;6.97;4.45;;;;;;;14.49;59.26;100081.53;5112057;28;19920;-56
2023/01/05 10:28:41;;;;;;;6.70;4.50;;;;;;;14.51;59.41;100097.50;5093523;28;20092;-58
2023/01/05 10:31:22;;;;;;;7.07;4.55;;;;;;;14.51;59.49;100094.81;5111932;28;20043;-57
2023/01/05 10:33:52;;;;;;;7.45;5.15;;;;;;;14.48;59.64;100148.75;5112011;28;20104;-57
2023/01/05 10:36:38;;;;;;;6.82;4.40;;;;;;;14.48;59.48;100189.00;5093604;28;20052;-57
2023/01/05 10:39:38;;;;;;;6.78;4.45;;;;;;;14.45;59.63;100184.69;5112063;28;20202;-56
2023/01/05 10:42:14;;;;;;;7.00;5.05;;;;;;;14.45;59.63;100171.28;5093109;28;20075;-57
2023/01/05 10:44:53;;;;;;;7.75;4.53;;;;;;;14.45;59.65;100165.06;5111904;28;20044;-57
2023/01/05 10:47:25;;;;;;;6.85;4.72;;;;;;;14.44;59.71;100176.75;5094078;28;20439;-56
2023/01/05 10:49:53;;;;;;;8.00;4.38;;;;;;;14.42;59.77;100170.66;5111754;28;20122;-57
2023/01/05 10:52:22;;;;;;;6.22;4.40;;;;;;;14.41;59.77;100164.44;5093763;28;20044;-57
2023/01/05 10:54:56;;;;;;;8.18;4.60;;;;;;;14.41;59.91;100177.00;5079889;28;20051;-57
2023/01/05 10:57:37;;;;;;;5.82;3.70;;;;;;;14.40;59.90;100161.88;5115989;28;20040;-57
2023/01/05 11:00:11;;;;;;;7.43;4.38;;;;;;;14.38;59.97;100158.41;5097605;28;20109;-58
2023/01/05 11:02:45;;;;;;;6.72;4.30;;;;;;;14.37;60.13;100164.75;5097363;28;20051;-58
2023/01/05 11:05:27;;;;;;;5.93;3.92;;;;;;;14.37;60.07;100162.09;5115688;28;20043;-57
2023/01/05 11:07:57;;;;;;;5.65;3.92;;;;;;;14.37;60.03;100172.81;5115889;28;20055;-57
2023/01/05 11:10:29;;;;;;;6.97;4.30;;;;;;;14.35;59.97;100174.75;5115566;28;20500;-57
2023/01/05 11:13:03;;;;;;;6.15;4.35;;;;;;;14.35;60.05;100182.81;5115745;28;20055;-57
2023/01/05 11:15:34;;;;;;;6.25;4.50;;;;;;;14.33;60.09;100194.53;5115696;28;20480;-55
2023/01/05 11:18:06;;;;;;;6.40;4.10;;;;;;;14.33;60.19;100183.78;5115500;28;20043;-57
2023/01/05 11:20:35;;;;;;;7.32;4.53;;;;;;;14.33;60.13;100174.88;5115548;28;20516;-56
2023/01/05 11:23:03;;;;;;;5.28;3.53;;;;;;;14.31;60.20;100185.75;5115434;28;20043;-57
2023/01/05 11:25:33;;;;;;;6.38;3.72;;;;;;;14.33;60.19;100188.31;5115460;28;20443;-57
2023/01/05 11:28:11;;;;;;;5.53;3.80;;;;;;;14.31;60.24;100193.78;5115201;28;20050;-56
2023/01/05 11:30:58;;;;;;;6.15;4.00;;;;;;;14.31;60.21;100190.25;5115066;28;20043;-58
2023/01/05 11:33:30;;;;;;;5.82;4.00;;;;;;;14.31;60.31;100190.25;5115283;28;20043;-57
2023/01/05 11:35:58;;;;;;;5.97;3.70;;;;;;;14.30;60.26;100194.78;5115181;28;20047;-57
2023/01/05 11:38:29;;;;;;;5.78;3.72;;;;;;;14.29;60.36;100187.69;5115102;28;20051;-57
2023/01/05 11:40:59;;;;;;;5.43;3.45;;;;;;;14.29;60.38;100182.34;5096667;28;20070;-58
2023/01/05 11:43:30;;;;;;;5.88;3.60;;;;;;;14.28;60.38;100167.22;5096630;28;20096;-59
2023/01/05 11:46:00;;;;;;;5.40;3.45;;;;;;;14.28;60.30;100169.91;5096638;28;20054;-57
2023/01/05 11:48:33;;;;;;;5.60;3.55;;;;;;;14.30;60.40;100167.09;5114919;28;20063;-57
2023/01/05 11:51:01;;;;;;;5.90;3.65;;;;;;;14.29;60.45;100154.66;5096547;28;20500;-57
2023/01/05 11:53:40;;;;;;;5.05;3.17;;;;;;;14.29;60.51;100147.44;5096104;28;20516;-57
2023/01/05 11:56:20;;;;;;;4.72;3.10;;;;;;;14.28;60.50;100136.81;5096557;28;20497;-57
2023/01/05 11:58:50;;;;;;;5.20;3.30;;;;;;;14.27;60.48;100138.66;5114773;28;20400;-59
2023/01/05 12:01:57;;;;;;;4.93;3.03;;;;;;;14.27;60.55;100130.59;5096644;28;20043;-56
2023/01/05 12:04:54;;;;;;;4.95;3.10;;;;;;;14.26;60.57;100131.56;5095832;28;20051;-59
2023/01/05 12:07:36;;;;;;;4.80;2.92;;;;;;;14.27;60.66;100146.69;5114542;28;20043;-57
2023/01/05 12:10:28;;;;;;;5.22;3.08;;;;;;;14.28;60.67;100147.53;5114342;28;20048;-57
2023/01/05 12:13:07;;;;;;;4.07;2.65;;;;;;;14.26;60.68;100161.09;5114635;28;20047;-57
2023/01/05 12:16:05;;;;;;;4.10;2.38;;;;;;;14.25;60.84;100162.06;5114506;28;20044;-57
2023/01/05 12:19:00;;;;;;;4.13;2.60;;;;;;;14.25;60.77;100180.84;5084170;28;20039;-58
2023/01/05 12:21:38;;;;;;;4.72;2.65;;;;;;;14.23;60.92;100188.16;5114413;28;20040;-57